sensor_id;sensor_type;location;lat;lon;timestamp;temperature;humidity
18948;DHT22;9607;51.600;7.558;2022-11-23T00:01:40;8.50;99.90
18948;DHT22;9607;51.600;7.558;2022-11-23T00:04:13;8.60;99.90
18948;DHT22;9607;51.600;7.558;2022-11-23T00:06:58;8.60;99.90
18948;DHT22;9607;51.600;7.558;2022-11-23T00:09:43;8.60;99.90
18948;DHT22;9607;51.600;7.558;2022-11-23T00:12:26;8.60;99.90
18948;DHT22;9607;51.600;7.558;2022-11-23T00:15:01;8.60;99.90
18948;DHT22;9607;51.600;7.558;2022-11-23T00:17:43;8.60;99.90
18948;DHT22;9607;51.600;7.558;2022-11-23T00:20:43;8.70;99.90
18948;DHT22;9607;51.600;7.558;2022-11-23T00:23:24;8.60;99.90
18948;DHT22;9607;51.600;7.558;2022-11-23T00:26:05;8.60;99.90
18948;DHT22;9607;51.600;7.558;2022-11-23T00:28:52;8.70;99.90
18948;DHT22;9607;51.600;7.558;2022-11-23T00:31:44;8.70;99.90
18948;DHT22;9607;51.600;7.558;2022-11-23T00:34:21;8.70;99.90
18948;DHT22;9607;51.600;7.558;2022-11-23T00:40:26;8.70;99.90
18948;DHT22;9607;51.600;7.558;2022-11-23T00:43:09;8.60;99.90
18948;DHT22;9607;51.600;7.558;2022-11-23T00:46:04;8.70;99.90
18948;DHT22;9607;51.600;7.558;2022-11-23T00:48:58;8.70;99.90
18948;DHT22;9607;51.600;7.558;2022-11-23T00:55:08;8.80;99.90
18948;DHT22;9607;51.600;7.558;2022-11-23T00:58:02;8.80;99.90
18948;DHT22;9607;51.600;7.558;2022-11-23T01:01:18;8.80;99.90
18948;DHT22;9607;51.600;7.558;2022-11-23T01:04:14;8.80;99.90
18948;DHT22;9607;51.600;7.558;2022-11-23T01:07:17;8.80;99.90
18948;DHT22;9607;51.600;7.558;2022-11-23T01:13:53;8.80;99.90
18948;DHT22;9607;51.600;7.558;2022-11-23T01:43:51;8.90;99.90
18948;DHT22;9607;51.600;7.558;2022-11-23T01:46:19;9.00;99.90
18948;DHT22;9607;51.600;7.558;2022-11-23T01:48:52;9.00;99.90
18948;DHT22;9607;51.600;7.558;2022-11-23T01:51:23;9.00;99.90
18948;DHT22;9607;51.600;7.558;2022-11-23T01:53:53;8.90;99.90
18948;DHT22;9607;51.600;7.558;2022-11-23T01:56:27;9.00;99.90
18948;DHT22;9607;51.600;7.558;2022-11-23T01:58:59;9.10;99.90
18948;DHT22;9607;51.600;7.558;2022-11-23T02:01:28;9.10;99.90
18948;DHT22;9607;51.600;7.558;2022-11-23T02:04:00;9.00;99.90
18948;DHT22;9607;51.600;7.558;2022-11-23T02:06:29;9.00;99.90
18948;DHT22;9607;51.600;7.558;2022-11-23T02:09:00;8.90;99.90
18948;DHT22;9607;51.600;7.558;2022-11-23T02:11:28;8.90;99.90
18948;DHT22;9607;51.600;7.558;2022-11-23T02:13:57;8.80;99.90
18948;DHT22;9607;51.600;7.558;2022-11-23T02:16:25;8.80;99.90
18948;DHT22;9607;51.600;7.558;2022-11-23T02:18:52;8.80;99.90
18948;DHT22;9607;51.600;7.558;2022-11-23T02:21:21;8.80;99.90
18948;DHT22;9607;51.600;7.558;2022-11-23T02:23:58;8.80;99.90
18948;DHT22;9607;51.600;7.558;2022-11-23T02:26:28;8.80;99.90
18948;DHT22;9607;51.600;7.558;2022-11-23T02:28:59;8.70;99.90
18948;DHT22;9607;51.600;7.558;2022-11-23T02:31:27;8.70;99.90
18948;DHT22;9607;51.600;7.558;2022-11-23T02:33:55;8.70;99.90
18948;DHT22;9607;51.600;7.558;2022-11-23T02:36:34;8.60;99.90
18948;DHT22;9607;51.600;7.558;2022-11-23T02:39:07;8.70;99.90
18948;DHT22;9607;51.600;7.558;2022-11-23T02:41:38;8.60;99.90
18948;DHT22;9607;51.600;7.558;2022-11-23T02:44:13;8.60;99.90
18948;DHT22;9607;51.600;7.558;2022-11-23T02:46:41;8.60;99.90
18948;DHT22;9607;51.600;7.558;2022-11-23T02:49:09;8.60;99.90
18948;DHT22;9607;51.600;7.558;2022-11-23T02:51:36;8.60;99.90
18948;DHT22;9607;51.600;7.558;2022-11-23T02:54:05;8.70;99.90
18948;DHT22;9607;51.600;7.558;2022-11-23T02:56:32;8.70;99.90
18948;DHT22;9607;51.600;7.558;2022-11-23T02:59:01;8.70;99.90
18948;DHT22;9607;51.600;7.558;2022-11-23T03:01:28;8.70;99.90
18948;DHT22;9607;51.600;7.558;2022-11-23T03:03:55;8.70;99.90
18948;DHT22;9607;51.600;7.558;2022-11-23T03:06:22;8.70;99.90
18948;DHT22;9607;51.600;7.558;2022-11-23T03:08:49;8.70;99.90
18948;DHT22;9607;51.600;7.558;2022-11-23T03:11:17;8.80;99.90
18948;DHT22;9607;51.600;7.558;2022-11-23T03:13:44;8.80;99.90
18948;DHT22;9607;51.600;7.558;2022-11-23T03:16:12;8.80;99.90
18948;DHT22;9607;51.600;7.558;2022-11-23T03:18:41;8.80;99.90
18948;DHT22;9607;51.600;7.558;2022-11-23T03:21:08;8.80;99.90
18948;DHT22;9607;51.600;7.558;2022-11-23T03:23:35;8.80;99.90
18948;DHT22;9607;51.600;7.558;2022-11-23T03:26:03;8.90;99.90
18948;DHT22;9607;51.600;7.558;2022-11-23T03:28:30;8.90;99.90
18948;DHT22;9607;51.600;7.558;2022-11-23T03:30:57;8.90;99.90
18948;DHT22;9607;51.600;7.558;2022-11-23T03:33:26;8.90;99.90
18948;DHT22;9607;51.600;7.558;2022-11-23T03:35:53;9.00;99.90
18948;DHT22;9607;51.600;7.558;2022-11-23T03:38:21;8.90;99.90
18948;DHT22;9607;51.600;7.558;2022-11-23T03:40:48;8.90;99.90
18948;DHT22;9607;51.600;7.558;2022-11-23T03:43:17;8.90;99.90
18948;DHT22;9607;51.600;7.558;2022-11-23T03:45:46;9.00;99.90
18948;DHT22;9607;51.600;7.558;2022-11-23T03:48:14;8.90;99.90
18948;DHT22;9607;51.600;7.558;2022-11-23T03:50:43;9.00;99.90
18948;DHT22;9607;51.600;7.558;2022-11-23T03:53:10;9.00;99.90
18948;DHT22;9607;51.600;7.558;2022-11-23T03:55:38;9.00;99.90
18948;DHT22;9607;51.600;7.558;2022-11-23T03:58:05;9.00;99.90
18948;DHT22;9607;51.600;7.558;2022-11-23T04:00:33;9.00;99.90
18948;DHT22;9607;51.600;7.558;2022-11-23T04:03:02;9.00;99.90
18948;DHT22;9607;51.600;7.558;2022-11-23T04:05:32;9.00;99.90
18948;DHT22;9607;51.600;7.558;2022-11-23T04:08:14;9.00;99.90
18948;DHT22;9607;51.600;7.558;2022-11-23T04:10:41;9.00;99.90
18948;DHT22;9607;51.600;7.558;2022-11-23T04:13:09;8.90;99.90
18948;DHT22;9607;51.600;7.558;2022-11-23T04:15:36;8.90;99.90
18948;DHT22;9607;51.600;7.558;2022-11-23T04:18:04;8.90;99.90
18948;DHT22;9607;51.600;7.558;2022-11-23T04:20:31;8.80;99.90
18948;DHT22;9607;51.600;7.558;2022-11-23T04:22:58;8.80;99.90
18948;DHT22;9607;51.600;7.558;2022-11-23T04:25:27;8.80;99.90
18948;DHT22;9607;51.600;7.558;2022-11-23T04:27:56;8.80;99.90
18948;DHT22;9607;51.600;7.558;2022-11-23T04:30:23;8.80;99.90
18948;DHT22;9607;51.600;7.558;2022-11-23T04:32:51;8.80;99.90
18948;DHT22;9607;51.600;7.558;2022-11-23T04:35:18;8.70;99.90
18948;DHT22;9607;51.600;7.558;2022-11-23T04:37:47;8.80;99.90
18948;DHT22;9607;51.600;7.558;2022-11-23T04:40:15;8.80;99.90
18948;DHT22;9607;51.600;7.558;2022-11-23T04:42:43;8.70;99.90
18948;DHT22;9607;51.600;7.558;2022-11-23T04:45:10;8.70;99.90
18948;DHT22;9607;51.600;7.558;2022-11-23T04:47:37;8.70;99.90
18948;DHT22;9607;51.600;7.558;2022-11-23T04:50:07;8.80;99.90
18948;DHT22;9607;51.600;7.558;2022-11-23T04:52:34;8.70;99.90
18948;DHT22;9607;51.600;7.558;2022-11-23T04:55:02;8.60;99.90
18948;DHT22;9607;51.600;7.558;2022-11-23T04:57:29;8.70;99.90
18948;DHT22;9607;51.600;7.558;2022-11-23T04:59:57;8.70;99.90
18948;DHT22;9607;51.600;7.558;2022-11-23T05:02:25;8.70;99.90
18948;DHT22;9607;51.600;7.558;2022-11-23T05:04:51;8.60;99.90
18948;DHT22;9607;51.600;7.558;2022-11-23T05:07:19;8.60;99.90
18948;DHT22;9607;51.600;7.558;2022-11-23T05:09:46;8.60;99.90
18948;DHT22;9607;51.600;7.558;2022-11-23T05:12:13;8.60;99.90
18948;DHT22;9607;51.600;7.558;2022-11-23T05:14:40;8.70;99.90
18948;DHT22;9607;51.600;7.558;2022-11-23T05:17:09;8.60;99.90
18948;DHT22;9607;51.600;7.558;2022-11-23T05:19:36;8.60;99.90
18948;DHT22;9607;51.600;7.558;2022-11-23T05:22:06;8.60;99.90
18948;DHT22;9607;51.600;7.558;2022-11-23T05:24:33;8.60;99.90
18948;DHT22;9607;51.600;7.558;2022-11-23T05:27:01;8.60;99.90
18948;DHT22;9607;51.600;7.558;2022-11-23T05:29:28;8.70;99.90
18948;DHT22;9607;51.600;7.558;2022-11-23T05:31:55;8.60;99.90
18948;DHT22;9607;51.600;7.558;2022-11-23T05:34:23;8.60;99.90
18948;DHT22;9607;51.600;7.558;2022-11-23T05:36:50;8.50;99.90
18948;DHT22;9607;51.600;7.558;2022-11-23T05:39:17;8.60;99.90
18948;DHT22;9607;51.600;7.558;2022-11-23T05:41:44;8.60;99.90
18948;DHT22;9607;51.600;7.558;2022-11-23T05:44:11;8.60;99.90
18948;DHT22;9607;51.600;7.558;2022-11-23T05:46:38;8.60;99.90
18948;DHT22;9607;51.600;7.558;2022-11-23T05:49:05;8.60;99.90
18948;DHT22;9607;51.600;7.558;2022-11-23T05:51:34;8.60;99.90
18948;DHT22;9607;51.600;7.558;2022-11-23T05:54:05;8.50;99.90
18948;DHT22;9607;51.600;7.558;2022-11-23T05:56:36;8.60;99.90
18948;DHT22;9607;51.600;7.558;2022-11-23T05:59:05;8.60;99.90
18948;DHT22;9607;51.600;7.558;2022-11-23T06:01:32;8.60;99.90
18948;DHT22;9607;51.600;7.558;2022-11-23T06:04:00;8.60;99.90
18948;DHT22;9607;51.600;7.558;2022-11-23T06:06:43;8.70;99.90
18948;DHT22;9607;51.600;7.558;2022-11-23T06:09:11;8.60;99.90
18948;DHT22;9607;51.600;7.558;2022-11-23T06:11:40;8.50;99.90
18948;DHT22;9607;51.600;7.558;2022-11-23T06:14:16;8.40;99.90
18948;DHT22;9607;51.600;7.558;2022-11-23T06:16:44;8.30;99.90
18948;DHT22;9607;51.600;7.558;2022-11-23T06:19:12;8.30;99.90
18948;DHT22;9607;51.600;7.558;2022-11-23T06:21:55;8.20;99.90
18948;DHT22;9607;51.600;7.558;2022-11-23T06:24:25;8.20;99.90
18948;DHT22;9607;51.600;7.558;2022-11-23T06:26:54;8.20;99.90
18948;DHT22;9607;51.600;7.558;2022-11-23T06:29:20;8.30;99.90
18948;DHT22;9607;51.600;7.558;2022-11-23T06:31:47;8.30;99.90
18948;DHT22;9607;51.600;7.558;2022-11-23T06:34:14;8.30;99.90
18948;DHT22;9607;51.600;7.558;2022-11-23T06:36:41;8.40;99.90
18948;DHT22;9607;51.600;7.558;2022-11-23T06:39:10;8.40;99.90
18948;DHT22;9607;51.600;7.558;2022-11-23T06:41:39;8.40;99.90
18948;DHT22;9607;51.600;7.558;2022-11-23T06:44:07;8.40;99.90
18948;DHT22;9607;51.600;7.558;2022-11-23T06:46:35;8.50;99.90
18948;DHT22;9607;51.600;7.558;2022-11-23T06:49:02;8.50;99.90
18948;DHT22;9607;51.600;7.558;2022-11-23T06:51:30;8.50;99.90
18948;DHT22;9607;51.600;7.558;2022-11-23T06:53:56;8.50;99.90
18948;DHT22;9607;51.600;7.558;2022-11-23T06:56:25;8.50;99.90
18948;DHT22;9607;51.600;7.558;2022-11-23T06:58:52;8.50;99.90
18948;DHT22;9607;51.600;7.558;2022-11-23T07:01:19;8.50;99.90
18948;DHT22;9607;51.600;7.558;2022-11-23T07:03:46;8.60;99.90
18948;DHT22;9607;51.600;7.558;2022-11-23T07:06:13;8.50;99.90
18948;DHT22;9607;51.600;7.558;2022-11-23T07:08:41;8.60;99.90
18948;DHT22;9607;51.600;7.558;2022-11-23T07:11:10;8.60;99.90
18948;DHT22;9607;51.600;7.558;2022-11-23T07:13:39;8.60;99.90
18948;DHT22;9607;51.600;7.558;2022-11-23T07:16:08;8.50;99.90
18948;DHT22;9607;51.600;7.558;2022-11-23T07:18:35;8.70;99.90
18948;DHT22;9607;51.600;7.558;2022-11-23T07:21:02;8.70;99.90
18948;DHT22;9607;51.600;7.558;2022-11-23T07:23:30;8.70;99.90
18948;DHT22;9607;51.600;7.558;2022-11-23T07:25:57;8.70;99.90
18948;DHT22;9607;51.600;7.558;2022-11-23T07:28:24;8.80;99.90
18948;DHT22;9607;51.600;7.558;2022-11-23T07:30:52;8.80;99.90
18948;DHT22;9607;51.600;7.558;2022-11-23T07:33:19;8.80;99.90
18948;DHT22;9607;51.600;7.558;2022-11-23T07:35:48;8.80;99.90
18948;DHT22;9607;51.600;7.558;2022-11-23T09:45:07;10.80;99.90
18948;DHT22;9607;51.600;7.558;2022-11-23T10:34:18;10.40;99.90
18948;DHT22;9607;51.600;7.558;2022-11-23T10:36:47;10.50;99.90
18948;DHT22;9607;51.600;7.558;2022-11-23T10:39:19;10.60;99.90
18948;DHT22;9607;51.600;7.558;2022-11-23T10:41:48;10.70;99.90
18948;DHT22;9607;51.600;7.558;2022-11-23T10:44:34;10.70;99.90
18948;DHT22;9607;51.600;7.558;2022-11-23T10:47:03;10.70;99.90
18948;DHT22;9607;51.600;7.558;2022-11-23T10:49:32;10.70;99.90
18948;DHT22;9607;51.600;7.558;2022-11-23T10:52:00;10.80;99.90
18948;DHT22;9607;51.600;7.558;2022-11-23T10:54:30;10.80;99.90
18948;DHT22;9607;51.600;7.558;2022-11-23T10:56:59;10.90;99.90
18948;DHT22;9607;51.600;7.558;2022-11-23T10:59:32;10.90;99.90
18948;DHT22;9607;51.600;7.558;2022-11-23T11:02:10;10.90;99.90
18948;DHT22;9607;51.600;7.558;2022-11-23T11:04:42;10.90;99.90
18948;DHT22;9607;51.600;7.558;2022-11-23T11:07:17;10.90;99.90
18948;DHT22;9607;51.600;7.558;2022-11-23T11:09:54;10.80;99.90
18948;DHT22;9607;51.600;7.558;2022-11-23T11:12:22;10.80;99.90
18948;DHT22;9607;51.600;7.558;2022-11-23T11:14:58;10.70;99.90
18948;DHT22;9607;51.600;7.558;2022-11-23T11:17:30;10.60;99.90
18948;DHT22;9607;51.600;7.558;2022-11-23T11:20:00;10.60;99.90
18948;DHT22;9607;51.600;7.558;2022-11-23T11:22:37;10.50;99.90
18948;DHT22;9607;51.600;7.558;2022-11-23T11:25:06;10.50;99.90
18948;DHT22;9607;51.600;7.558;2022-11-23T11:27:50;10.50;99.90
18948;DHT22;9607;51.600;7.558;2022-11-23T11:33:48;10.50;99.90
18948;DHT22;9607;51.600;7.558;2022-11-23T11:38:58;10.50;99.90
18948;DHT22;9607;51.600;7.558;2022-11-23T12:04:45;12.00;99.90
18948;DHT22;9607;51.600;7.558;2022-11-23T15:27:21;8.70;99.90
18948;DHT22;9607;51.600;7.558;2022-11-23T16:41:41;9.40;99.90
18948;DHT22;9607;51.600;7.558;2022-11-23T19:38:50;8.50;99.90
18948;DHT22;9607;51.600;7.558;2022-11-23T19:41:19;8.40;99.90
18948;DHT22;9607;51.600;7.558;2022-11-23T20:17:26;8.50;99.90
18948;DHT22;9607;51.600;7.558;2022-11-23T20:19:53;8.40;99.90
18948;DHT22;9607;51.600;7.558;2022-11-23T20:32:44;8.40;99.90
18948;DHT22;9607;51.600;7.558;2022-11-23T20:35:12;8.40;99.90
18948;DHT22;9607;51.600;7.558;2022-11-23T21:45:05;7.20;99.90
18948;DHT22;9607;51.600;7.558;2022-11-23T21:50:09;7.10;99.90
18948;DHT22;9607;51.600;7.558;2022-11-23T21:55:11;7.00;99.90
18948;DHT22;9607;51.600;7.558;2022-11-23T21:57:39;6.90;99.90
18948;DHT22;9607;51.600;7.558;2022-11-23T22:26:02;6.50;99.90
18948;DHT22;9607;51.600;7.558;2022-11-23T22:28:32;6.50;99.90
18948;DHT22;9607;51.600;7.558;2022-11-23T22:31:00;6.60;99.90
18948;DHT22;9607;51.600;7.558;2022-11-23T22:45:22;6.70;99.90
18948;DHT22;9607;51.600;7.558;2022-11-23T22:47:52;6.70;99.90
18948;DHT22;9607;51.600;7.558;2022-11-23T22:50:19;6.80;99.90
18948;DHT22;9607;51.600;7.558;2022-11-23T22:52:46;6.80;99.90
18948;DHT22;9607;51.600;7.558;2022-11-23T22:55:12;6.90;99.90
18948;DHT22;9607;51.600;7.558;2022-11-23T22:57:39;7.00;99.90
18948;DHT22;9607;51.600;7.558;2022-11-23T23:00:08;7.10;99.90
18948;DHT22;9607;51.600;7.558;2022-11-23T23:02:37;7.20;99.90
18948;DHT22;9607;51.600;7.558;2022-11-23T23:05:04;7.30;99.90
18948;DHT22;9607;51.600;7.558;2022-11-23T23:07:36;7.40;99.90
18948;DHT22;9607;51.600;7.558;2022-11-23T23:10:05;7.50;99.90
18948;DHT22;9607;51.600;7.558;2022-11-23T23:12:32;7.50;99.90
18948;DHT22;9607;51.600;7.558;2022-11-23T23:14:59;7.70;99.90
18948;DHT22;9607;51.600;7.558;2022-11-23T23:17:26;7.80;99.90
18948;DHT22;9607;51.600;7.558;2022-11-23T23:19:54;7.70;99.90
18948;DHT22;9607;51.600;7.558;2022-11-23T23:22:22;7.70;99.90
18948;DHT22;9607;51.600;7.558;2022-11-23T23:24:49;7.60;99.90
18948;DHT22;9607;51.600;7.558;2022-11-23T23:27:18;7.60;99.90
18948;DHT22;9607;51.600;7.558;2022-11-23T23:29:45;7.50;99.90
18948;DHT22;9607;51.600;7.558;2022-11-23T23:32:12;7.60;99.90
18948;DHT22;9607;51.600;7.558;2022-11-23T23:34:39;7.50;99.90
18948;DHT22;9607;51.600;7.558;2022-11-23T23:37:09;7.60;99.90
18948;DHT22;9607;51.600;7.558;2022-11-23T23:39:36;7.50;99.90
18948;DHT22;9607;51.600;7.558;2022-11-23T23:42:03;7.60;99.90
18948;DHT22;9607;51.600;7.558;2022-11-23T23:44:32;7.60;99.90
18948;DHT22;9607;51.600;7.558;2022-11-23T23:46:59;7.80;99.90
18948;DHT22;9607;51.600;7.558;2022-11-23T23:49:26;7.80;99.90
18948;DHT22;9607;51.600;7.558;2022-11-23T23:51:56;7.90;99.90
18948;DHT22;9607;51.600;7.558;2022-11-23T23:54:24;7.90;99.90
18948;DHT22;9607;51.600;7.558;2022-11-23T23:56:51;8.10;99.90
18948;DHT22;9607;51.600;7.558;2022-11-23T23:59:19;8.10;99.90
